createdAt,value
2018-05-06T00:00:40.101Z,12.20
2018-05-06T00:02:44.610Z,12.20
2018-05-06T00:04:49.027Z,12.20
2018-05-06T00:06:53.545Z,12.10
2018-05-06T00:08:57.666Z,12.00
2018-05-06T00:11:02.127Z,12.10
2018-05-06T00:13:07.334Z,11.90
2018-05-06T00:15:11.843Z,11.90
2018-05-06T00:17:17.194Z,12.20
2018-05-06T00:19:21.387Z,12.20
2018-05-06T00:21:25.818Z,12.10
2018-05-06T00:23:30.275Z,12.00
2018-05-06T00:25:34.725Z,12.00
2018-05-06T00:27:39.144Z,12.00
2018-05-06T00:29:43.610Z,12.20
2018-05-06T00:31:48.814Z,12.00
2018-05-06T00:33:53.253Z,12.00
2018-05-06T00:35:57.832Z,11.90
2018-05-06T00:38:02.223Z,11.90
2018-05-06T00:40:06.521Z,11.90
2018-05-06T00:42:10.982Z,12.00
2018-05-06T00:44:15.197Z,11.70
2018-05-06T00:46:19.672Z,11.40
2018-05-06T00:48:24.329Z,11.50
2018-05-06T00:50:28.731Z,11.60
2018-05-06T00:52:33.167Z,11.50
2018-05-06T00:54:44.376Z,11.10
2018-05-06T00:56:48.818Z,11.50
2018-05-06T00:58:53.260Z,11.70
2018-05-06T01:00:57.443Z,11.50
2018-05-06T01:03:02.660Z,11.40
2018-05-06T01:05:07.114Z,11.40
2018-05-06T01:07:11.450Z,11.40
2018-05-06T01:09:15.571Z,11.40
2018-05-06T01:11:20.097Z,11.30
2018-05-06T01:13:24.520Z,11.30
2018-05-06T01:15:29.015Z,11.10
2018-05-06T01:17:34.194Z,11.00
2018-05-06T01:19:39.387Z,11.10
2018-05-06T01:21:43.835Z,11.10
2018-05-06T01:23:48.285Z,11.10
2018-05-06T01:25:52.382Z,10.80
2018-05-06T01:27:57.348Z,11.20
2018-05-06T01:30:01.807Z,11.20
2018-05-06T01:32:06.214Z,11.20
2018-05-06T01:34:10.632Z,11.00
2018-05-06T01:36:15.943Z,11.00
2018-05-06T01:38:20.260Z,11.00
2018-05-06T01:40:24.655Z,10.60
2018-05-06T01:42:29.119Z,10.50
2018-05-06T01:44:33.543Z,10.70
2018-05-06T01:46:37.690Z,10.70
2018-05-06T01:48:41.849Z,10.80
2018-05-06T01:50:46.486Z,10.90
2018-05-06T01:52:50.918Z,10.60
2018-05-06T01:54:56.407Z,10.60
2018-05-06T01:57:00.807Z,10.60
2018-05-06T01:59:05.226Z,10.70
2018-05-06T02:01:09.696Z,10.70
2018-05-06T02:03:14.121Z,10.80
2018-05-06T02:05:18.989Z,10.70
2018-05-06T02:07:23.187Z,10.70
2018-05-06T02:09:27.334Z,10.60
2018-05-06T02:11:31.778Z,10.80
2018-05-06T02:13:36.239Z,10.60
2018-05-06T02:15:40.667Z,10.50
2018-05-06T02:17:44.871Z,10.40
2018-05-06T02:19:49.302Z,10.10
2018-05-06T02:21:53.742Z,10.20
2018-05-06T02:23:58.170Z,10.10
2018-05-06T02:26:02.606Z,10.10
2018-05-06T02:28:08.018Z,10.30
2018-05-06T02:30:12.509Z,10.30
2018-05-06T02:32:16.659Z,10.40
2018-05-06T02:34:20.586Z,10.00
2018-05-06T02:36:25.979Z,10.20
2018-05-06T02:38:30.407Z,10.10
2018-05-06T02:40:35.069Z,10.20
2018-05-06T02:42:39.495Z,10.40
2018-05-06T02:44:43.940Z,10.50
2018-05-06T02:46:48.379Z,10.40
2018-05-06T02:48:52.847Z,10.20
2018-05-06T02:50:57.463Z,10.10
2018-05-06T02:53:02.220Z,10.20
2018-05-06T02:55:07.657Z,10.50
2018-05-06T02:57:12.811Z,10.30
2018-05-06T02:59:17.015Z,10.20
2018-05-06T03:01:21.210Z,10.30
2018-05-06T03:03:25.654Z,10.30
2018-05-06T03:05:30.082Z,10.00
2018-05-06T03:07:34.493Z,9.90
2018-05-06T03:09:38.930Z,10.10
2018-05-06T03:11:44.113Z,9.80
2018-05-06T03:13:48.530Z,9.80
2018-05-06T03:15:52.754Z,9.90
2018-05-06T03:17:56.879Z,9.60
2018-05-06T03:20:02.801Z,9.80
2018-05-06T03:22:07.250Z,9.80
2018-05-06T03:24:11.688Z,9.50
2018-05-06T03:26:16.098Z,9.40
2018-05-06T03:28:20.898Z,9.40
2018-05-06T03:30:25.351Z,9.70
2018-05-06T03:32:30.467Z,9.50
2018-05-06T03:34:34.891Z,9.70
2018-05-06T03:36:39.403Z,9.70
2018-05-06T03:38:43.829Z,9.60
2018-05-06T03:40:49.026Z,9.60
2018-05-06T03:42:53.442Z,9.60
2018-05-06T03:44:57.874Z,9.80
2018-05-06T03:47:02.324Z,9.90
2018-05-06T03:49:07.607Z,9.90
2018-05-06T03:51:11.994Z,9.90
2018-05-06T03:53:16.609Z,10.00
2018-05-06T03:55:21.226Z,9.80
2018-05-06T03:57:36.598Z,9.90
2018-05-06T03:59:51.931Z,9.70
2018-05-06T04:04:43.129Z,9.70
2018-05-06T04:06:47.591Z,9.70
2018-05-06T04:08:52.015Z,9.60
2018-05-06T04:10:56.622Z,9.70
2018-05-06T04:13:01.342Z,9.90
2018-05-06T04:15:05.781Z,10.10
2018-05-06T04:17:10.966Z,10.10
2018-05-06T04:19:15.414Z,10.10
2018-05-06T04:21:20.110Z,10.10
2018-05-06T04:23:24.654Z,9.90
2018-05-06T04:25:29.101Z,10.10
2018-05-06T04:27:33.527Z,10.10
2018-05-06T04:29:37.960Z,10.00
2018-05-06T04:31:42.407Z,10.00
2018-05-06T04:33:46.827Z,10.20
2018-05-06T04:35:51.265Z,10.20
2018-05-06T04:37:55.686Z,10.20
2018-05-06T04:39:59.863Z,10.20
2018-05-06T04:42:04.009Z,10.30
2018-05-06T04:44:09.236Z,10.60
2018-05-06T04:46:13.846Z,10.50
2018-05-06T04:48:18.270Z,10.60
2018-05-06T04:50:22.786Z,10.50
2018-05-06T04:52:27.206Z,10.70
2018-05-06T04:54:31.626Z,10.80
2018-05-06T04:56:36.069Z,10.80
2018-05-06T04:58:40.502Z,10.90
2018-05-06T05:00:44.932Z,10.90
2018-05-06T05:02:49.377Z,11.00
2018-05-06T05:04:53.808Z,11.00
2018-05-06T05:06:58.268Z,11.00
2018-05-06T05:09:02.696Z,11.00
2018-05-06T05:11:06.866Z,11.10
2018-05-06T05:13:12.066Z,11.30
2018-05-06T05:15:16.491Z,11.20
2018-05-06T05:17:21.115Z,11.30
2018-05-06T05:19:25.747Z,11.40
2018-05-06T05:21:30.369Z,11.40
2018-05-06T05:23:34.846Z,11.50
2018-05-06T05:25:39.394Z,11.70
2018-05-06T05:27:43.813Z,11.80
2018-05-06T05:29:48.242Z,11.80
2018-05-06T05:31:53.448Z,12.00
2018-05-06T05:33:58.078Z,12.00
2018-05-06T05:36:02.510Z,12.10
2018-05-06T05:38:06.617Z,12.10
2018-05-06T05:40:11.038Z,12.20
2018-05-06T05:42:15.462Z,12.30
2018-05-06T05:44:20.675Z,12.40
2018-05-06T05:46:25.103Z,12.40
2018-05-06T05:48:29.527Z,12.40
2018-05-06T05:50:34.187Z,12.50
2018-05-06T05:52:38.607Z,12.50
2018-05-06T05:54:43.714Z,12.60
2018-05-06T05:56:47.938Z,12.70
2018-05-06T05:58:52.369Z,12.70
2018-05-06T06:00:56.801Z,12.70
2018-05-06T06:03:01.841Z,12.80
2018-05-06T06:05:06.280Z,12.80
2018-05-06T06:07:10.719Z,12.80
2018-05-06T06:09:15.703Z,12.90
2018-05-06T06:11:20.327Z,12.90
2018-05-06T06:13:24.762Z,13.00
2018-05-06T06:15:29.275Z,13.00
2018-05-06T06:17:34.602Z,13.20
2018-05-06T06:19:39.030Z,13.10
2018-05-06T06:21:43.886Z,13.20
2018-05-06T06:23:48.038Z,13.30
2018-05-06T06:25:52.466Z,13.40
2018-05-06T06:27:56.910Z,13.50
2018-05-06T06:30:01.326Z,13.50
2018-05-06T06:32:05.437Z,13.50
2018-05-06T06:34:09.886Z,13.60
2018-05-06T06:36:14.331Z,13.60
2018-05-06T06:38:18.815Z,13.70
2018-05-06T06:40:23.504Z,13.80
2018-05-06T06:42:28.503Z,13.80
2018-05-06T06:44:32.906Z,13.80
2018-05-06T06:46:37.346Z,13.90
2018-05-06T06:48:41.795Z,13.90
2018-05-06T06:50:46.228Z,13.90
2018-05-06T06:52:51.442Z,14.10
2018-05-06T06:54:55.874Z,14.10
2018-05-06T06:57:00.851Z,14.20
2018-05-06T06:59:05.274Z,14.20
2018-05-06T07:01:09.427Z,14.30
2018-05-06T07:03:14.619Z,14.40
2018-05-06T07:05:19.397Z,14.40
2018-05-06T07:07:24.582Z,14.40
2018-05-06T07:09:29.196Z,14.40
2018-05-06T07:11:33.594Z,14.50
2018-05-06T07:13:38.035Z,14.60
2018-05-06T07:15:42.463Z,14.70
2018-05-06T07:17:47.004Z,14.80
2018-05-06T07:19:51.479Z,14.80
2018-05-06T07:21:56.653Z,14.90
2018-05-06T07:24:01.085Z,14.90
2018-05-06T07:26:06.283Z,15.10
2018-05-06T07:28:11.228Z,15.00
2018-05-06T07:30:17.163Z,15.20
2018-05-06T07:32:21.597Z,15.20
2018-05-06T07:34:26.040Z,15.20
2018-05-06T07:36:31.112Z,15.30
2018-05-06T07:38:35.267Z,15.30
2018-05-06T07:40:40.473Z,15.40
2018-05-06T07:42:44.905Z,15.40
2018-05-06T07:44:49.327Z,15.40
2018-05-06T07:46:53.806Z,15.50
2018-05-06T07:48:58.257Z,15.70
2018-05-06T07:51:03.138Z,15.80
2018-05-06T07:53:07.576Z,15.80
2018-05-06T07:55:11.675Z,15.90
2018-05-06T07:57:16.130Z,16.00
2018-05-06T07:59:20.549Z,16.00
2018-05-06T08:01:24.974Z,16.00
2018-05-06T08:03:30.207Z,16.00
2018-05-06T08:05:34.354Z,16.00
2018-05-06T08:07:38.781Z,16.10
2018-05-06T08:09:43.226Z,16.20
2018-05-06T08:11:47.335Z,16.20
2018-05-06T08:13:51.784Z,16.20
2018-05-06T08:15:57.710Z,16.40
2018-05-06T08:18:02.207Z,16.40
2018-05-06T08:20:06.630Z,16.30
2018-05-06T08:22:11.055Z,16.40
2018-05-06T08:24:15.501Z,16.50
2018-05-06T08:26:20.367Z,16.60
2018-05-06T08:28:24.786Z,16.60
2018-05-06T08:30:30.391Z,16.60
2018-05-06T08:32:35.585Z,16.70
2018-05-06T08:34:40.008Z,16.70
2018-05-06T08:36:45.669Z,16.70
2018-05-06T08:38:50.092Z,16.70
2018-05-06T08:40:54.509Z,16.70
2018-05-06T08:42:58.990Z,16.80
2018-05-06T08:45:03.431Z,16.90
2018-05-06T08:47:09.598Z,16.90
2018-05-06T08:49:14.027Z,16.90
2018-05-06T08:51:19.217Z,17.00
2018-05-06T08:53:23.863Z,17.00
2018-05-06T08:55:28.306Z,17.10
2018-05-06T08:57:33.517Z,17.10
2018-05-06T08:59:38.090Z,17.10
2018-05-06T09:01:42.662Z,17.30
2018-05-06T09:03:48.595Z,17.30
2018-05-06T09:05:53.027Z,17.30
2018-05-06T09:07:57.692Z,17.40
2018-05-06T09:10:02.153Z,17.40
2018-05-06T09:12:06.850Z,17.40
2018-05-06T09:14:11.300Z,17.60
2018-05-06T09:16:15.737Z,17.80
2018-05-06T09:18:21.658Z,17.80
2018-05-06T09:20:26.110Z,17.80
2018-05-06T09:22:30.289Z,17.80
2018-05-06T09:24:34.690Z,17.80
2018-05-06T09:26:39.347Z,18.00
2018-05-06T09:28:43.781Z,18.00
2018-05-06T09:30:48.951Z,18.20
2018-05-06T09:32:53.518Z,18.20
2018-05-06T09:34:58.714Z,18.20
2018-05-06T09:37:03.143Z,18.20
2018-05-06T09:39:09.231Z,18.10
2018-05-06T09:41:14.423Z,18.00
2018-05-06T09:43:18.514Z,18.00
2018-05-06T09:45:22.955Z,18.10
2018-05-06T09:47:27.865Z,18.40
2018-05-06T09:49:32.482Z,18.40
2018-05-06T09:51:37.145Z,18.50
2018-05-06T09:53:41.353Z,18.50
2018-05-06T09:55:45.998Z,18.50
2018-05-06T09:57:51.414Z,18.40
2018-05-06T09:59:55.868Z,18.40
2018-05-06T10:02:01.146Z,18.60
2018-05-06T10:04:05.546Z,18.60
2018-05-06T10:06:09.978Z,18.50
2018-05-06T10:08:14.692Z,18.60
2018-05-06T10:10:20.077Z,18.80
2018-05-06T10:12:26.010Z,18.90
2018-05-06T10:14:30.434Z,18.90
2018-05-06T10:16:35.054Z,19.00
2018-05-06T10:18:39.483Z,19.00
2018-05-06T10:20:45.440Z,19.00
2018-05-06T10:22:50.098Z,19.00
2018-05-06T10:24:54.539Z,19.10
2018-05-06T10:26:59.021Z,19.20
2018-05-06T10:29:03.626Z,19.10
2018-05-06T10:31:08.831Z,19.20
2018-05-06T10:33:13.266Z,19.10
2018-05-06T10:35:19.219Z,19.20
2018-05-06T10:37:24.422Z,19.30
2018-05-06T10:39:28.859Z,19.30
2018-05-06T10:41:33.327Z,19.20
2018-05-06T10:43:37.774Z,19.40
2018-05-06T10:45:42.396Z,19.50
2018-05-06T10:47:46.819Z,19.60
2018-05-06T10:49:51.258Z,19.70
2018-05-06T10:51:57.407Z,19.80
2018-05-06T10:54:03.350Z,19.70
2018-05-06T10:56:07.779Z,19.70
2018-05-06T10:58:12.202Z,19.80
2018-05-06T11:00:17.402Z,19.50
2018-05-06T11:02:21.852Z,19.50
2018-05-06T11:04:26.278Z,19.50
2018-05-06T11:06:30.743Z,19.80
2018-05-06T11:08:34.949Z,19.80
2018-05-06T11:10:39.138Z,19.80
2018-05-06T11:12:43.567Z,19.70
2018-05-06T11:14:48.042Z,19.80
2018-05-06T11:16:52.624Z,19.90
2018-05-06T11:18:57.605Z,20.00
2018-05-06T11:21:02.023Z,20.00
2018-05-06T11:23:07.309Z,20.00
2018-05-06T11:25:12.652Z,20.30
2018-05-06T11:27:17.106Z,20.30
2018-05-06T11:29:21.581Z,20.80
2018-05-06T11:31:26.783Z,21.80
2018-05-06T11:33:32.807Z,22.50
2018-05-06T11:35:37.234Z,22.50
2018-05-06T11:37:42.422Z,23.80
2018-05-06T11:39:46.858Z,23.80
2018-05-06T11:41:51.286Z,24.10
2018-05-06T11:43:55.705Z,24.30
2018-05-06T11:46:00.190Z,24.30
2018-05-06T11:48:04.824Z,24.40
2018-05-06T11:50:09.990Z,25.20
2018-05-06T11:52:14.968Z,25.80
2018-05-06T11:54:19.944Z,26.10
2018-05-06T11:56:24.385Z,26.40
2018-05-06T11:58:29.762Z,26.30
2018-05-06T12:00:34.208Z,26.30
2018-05-06T12:02:39.122Z,26.50
2018-05-06T12:04:43.558Z,26.40
2018-05-06T12:06:48.183Z,26.40
2018-05-06T12:08:52.661Z,26.40
2018-05-06T12:10:57.896Z,26.60
2018-05-06T12:13:02.305Z,26.50
2018-05-06T12:15:06.739Z,26.70
2018-05-06T12:17:11.199Z,27.20
2018-05-06T12:19:16.179Z,27.40
2018-05-06T12:21:21.002Z,27.60
2018-05-06T12:23:25.726Z,27.60
2018-05-06T12:25:30.695Z,27.20
2018-05-06T12:27:35.689Z,27.30
2018-05-06T12:29:40.265Z,28.10
2018-05-06T12:31:44.998Z,28.20
2018-05-06T12:33:49.414Z,28.20
2018-05-06T12:35:54.598Z,28.20
2018-05-06T12:38:00.329Z,28.60
2018-05-06T12:40:05.402Z,28.50
2018-05-06T12:42:10.210Z,28.50
2018-05-06T12:44:15.947Z,29.20
2018-05-06T12:46:21.683Z,28.80
2018-05-06T12:48:26.670Z,28.70
2018-05-06T12:50:31.642Z,28.80
2018-05-06T12:52:36.070Z,29.20
2018-05-06T12:54:43.259Z,28.40
2018-05-06T12:56:49.001Z,27.60
2018-05-06T12:58:54.734Z,28.00
2018-05-06T13:00:59.170Z,28.00
2018-05-06T13:03:04.902Z,28.90
2018-05-06T13:05:10.026Z,28.90
2018-05-06T13:07:15.209Z,29.00
2018-05-06T13:09:19.899Z,29.00
2018-05-06T13:11:25.655Z,29.20
2018-05-06T13:13:30.282Z,29.20
2018-05-06T13:15:35.285Z,29.40
2018-05-06T13:17:39.670Z,29.50
2018-05-06T13:19:44.679Z,29.30
2018-05-06T13:21:49.861Z,29.20
2018-05-06T13:23:54.384Z,29.10
2018-05-06T13:25:59.349Z,29.40
2018-05-06T13:28:03.547Z,28.80
2018-05-06T13:30:07.636Z,29.40
2018-05-06T13:32:11.840Z,30.10
2018-05-06T13:34:16.263Z,30.70
2018-05-06T13:36:20.698Z,30.40
2018-05-06T13:38:24.919Z,30.20
2018-05-06T13:40:30.407Z,30.30
2018-05-06T13:42:34.551Z,30.30
2018-05-06T13:44:38.750Z,29.90
2018-05-06T13:46:43.178Z,30.00
2018-05-06T13:48:47.597Z,30.10
2018-05-06T13:50:52.263Z,30.70
2018-05-06T13:52:56.672Z,31.10
2018-05-06T13:55:01.855Z,30.70
2018-05-06T13:57:06.051Z,30.70
2018-05-06T13:59:10.494Z,30.20
2018-05-06T14:01:14.914Z,30.20
2018-05-06T14:03:19.348Z,30.00
2018-05-06T14:05:23.975Z,30.50
2018-05-06T14:07:28.485Z,30.30
2018-05-06T14:09:32.914Z,29.70
2018-05-06T14:11:37.349Z,30.10
2018-05-06T14:13:42.743Z,30.50
2018-05-06T14:15:47.375Z,30.40
2018-05-06T14:17:51.794Z,30.70
2018-05-06T14:19:56.235Z,31.00
2018-05-06T14:22:01.430Z,31.00
2018-05-06T14:24:06.062Z,31.00
2018-05-06T14:26:10.558Z,30.90
2018-05-06T14:28:15.373Z,30.10
2018-05-06T14:30:19.799Z,30.10
2018-05-06T14:32:23.966Z,30.40
2018-05-06T14:34:29.159Z,30.70
2018-05-06T14:36:33.583Z,30.70
2018-05-06T14:38:38.014Z,30.80
2018-05-06T14:40:42.626Z,30.80
2018-05-06T14:42:47.055Z,31.00
2018-05-06T14:44:51.475Z,30.70
2018-05-06T14:47:07.450Z,31.50
2018-05-06T14:49:12.365Z,30.70
2018-05-06T14:51:16.782Z,30.70
2018-05-06T14:53:21.253Z,31.50
2018-05-06T14:55:25.669Z,31.00
2018-05-06T14:57:29.436Z,31.50
2018-05-06T14:59:33.888Z,31.80
2018-05-06T15:01:38.714Z,32.50
2018-05-06T15:03:43.152Z,32.40
2018-05-06T15:05:47.783Z,32.70
2018-05-06T15:07:52.202Z,32.50
2018-05-06T15:09:56.627Z,32.30
2018-05-06T15:12:00.843Z,31.90
2018-05-06T15:14:05.316Z,31.80
2018-05-06T15:16:09.459Z,31.40
2018-05-06T15:18:13.894Z,31.50
2018-05-06T15:20:18.338Z,32.40
2018-05-06T15:22:23.524Z,32.10
2018-05-06T15:24:27.978Z,32.10
2018-05-06T15:26:32.395Z,31.80
2018-05-06T15:28:36.878Z,31.50
2018-05-06T15:30:41.902Z,32.10
2018-05-06T15:32:47.444Z,31.70
2018-05-06T15:34:51.885Z,31.70
2018-05-06T15:36:56.333Z,31.30
2018-05-06T15:39:01.535Z,31.30
2018-05-06T15:41:06.495Z,31.30
2018-05-06T15:43:11.353Z,31.20
2018-05-06T15:45:16.347Z,31.00
2018-05-06T15:47:20.720Z,31.60
2018-05-06T15:49:25.113Z,32.40
2018-05-06T15:51:30.296Z,31.40
2018-05-06T15:53:35.274Z,31.70
2018-05-06T15:55:40.264Z,31.40
2018-05-06T15:57:45.230Z,31.50
2018-05-06T15:59:50.203Z,31.80
2018-05-06T16:02:07.131Z,31.00
2018-05-06T16:04:15.810Z,30.90
2018-05-06T16:06:20.763Z,31.00
2018-05-06T16:08:25.466Z,30.90
2018-05-06T16:10:30.482Z,30.80
2018-05-06T16:12:35.506Z,31.20
2018-05-06T16:14:41.319Z,31.50
2018-05-06T16:16:46.534Z,32.20
2018-05-06T16:18:51.538Z,32.10
2018-05-06T16:20:56.527Z,31.00
2018-05-06T16:23:01.551Z,31.00
2018-05-06T16:25:06.566Z,30.90
2018-05-06T16:27:12.419Z,31.20
2018-05-06T16:29:17.443Z,31.30
2018-05-06T16:31:22.439Z,31.20
2018-05-06T16:33:27.407Z,30.70
2018-05-06T16:35:32.630Z,30.70
2018-05-06T16:37:38.578Z,31.50
2018-05-06T16:39:42.764Z,31.50
2018-05-06T16:41:47.749Z,31.40
2018-05-06T16:43:52.947Z,31.20
2018-05-06T16:45:57.538Z,31.20
2018-05-06T16:48:01.970Z,30.80
2018-05-06T16:50:06.054Z,30.70
2018-05-06T16:52:10.495Z,30.40
2018-05-06T16:54:14.923Z,30.40
2018-05-06T16:56:19.395Z,30.70
2018-05-06T16:58:24.599Z,30.20
2018-05-06T17:00:29.013Z,30.10
2018-05-06T17:02:32.530Z,30.80
2018-05-06T17:04:37.666Z,30.60
2018-05-06T17:06:42.531Z,30.20
2018-05-06T17:08:46.951Z,30.20
2018-05-06T17:10:51.414Z,30.70
2018-05-06T17:12:55.885Z,30.40
2018-05-06T17:15:00.273Z,29.70
2018-05-06T17:17:04.434Z,29.40
2018-05-06T17:19:08.862Z,29.60
2018-05-06T17:21:13.278Z,29.80
2018-05-06T17:23:17.724Z,29.60
2018-05-06T17:25:22.980Z,29.50
2018-05-06T17:27:26.762Z,29.50
2018-05-06T17:29:32.487Z,29.20
2018-05-06T17:31:36.347Z,29.20
2018-05-06T17:33:40.431Z,28.90
2018-05-06T17:35:44.868Z,28.90
2018-05-06T17:37:49.305Z,29.30
2018-05-06T17:39:53.732Z,29.70
2018-05-06T17:41:57.876Z,29.40
2018-05-06T17:44:03.066Z,29.50
2018-05-06T17:46:07.485Z,29.50
2018-05-06T17:48:12.118Z,29.20
2018-05-06T17:50:16.209Z,28.90
2018-05-06T17:52:20.635Z,29.10
2018-05-06T17:54:25.079Z,29.10
2018-05-06T17:56:30.279Z,29.20
2018-05-06T17:58:34.698Z,29.10
2018-05-06T18:00:39.144Z,29.10
2018-05-06T18:02:43.553Z,28.60
2018-05-06T18:04:48.190Z,28.50
2018-05-06T18:06:53.575Z,28.00
2018-05-06T18:08:58.094Z,28.00
2018-05-06T18:11:02.507Z,28.20
2018-05-06T18:13:06.928Z,28.40
2018-05-06T18:15:11.346Z,28.40
2018-05-06T18:17:16.085Z,28.20
2018-05-06T18:19:20.525Z,28.10
2018-05-06T18:21:25.719Z,27.70
2018-05-06T18:23:30.146Z,27.70
2018-05-06T18:25:34.605Z,27.80
2018-05-06T18:27:39.822Z,27.40
2018-05-06T18:29:43.911Z,27.40
2018-05-06T18:31:48.335Z,27.40
2018-05-06T18:33:52.781Z,27.30
2018-05-06T18:35:58.198Z,27.00
2018-05-06T18:38:02.634Z,27.00
2018-05-06T18:40:07.851Z,26.40
2018-05-06T18:42:12.303Z,26.40
2018-05-06T18:44:17.490Z,25.70
2018-05-06T18:46:21.910Z,25.60
2018-05-06T18:48:26.259Z,25.20
2018-05-06T18:50:30.695Z,24.70
2018-05-06T18:52:35.131Z,24.40
2018-05-06T18:54:39.567Z,24.00
2018-05-06T18:56:44.006Z,23.50
2018-05-06T18:58:49.439Z,23.10
2018-05-06T19:00:53.653Z,22.90
2018-05-06T19:02:58.259Z,22.80
2018-05-06T19:05:02.683Z,22.70
2018-05-06T19:07:06.893Z,22.50
2018-05-06T19:09:11.000Z,22.30
2018-05-06T19:11:15.443Z,22.00
2018-05-06T19:13:20.635Z,21.80
2018-05-06T19:15:25.075Z,21.80
2018-05-06T19:17:31.023Z,21.40
2018-05-06T19:19:35.447Z,21.40
2018-05-06T19:21:40.377Z,21.20
2018-05-06T19:23:45.135Z,21.20
2018-05-06T19:25:50.135Z,21.20
2018-05-06T19:27:54.554Z,21.10
2018-05-06T19:29:58.770Z,21.10
2018-05-06T19:32:03.660Z,21.00
2018-05-06T19:34:07.784Z,20.90
2018-05-06T19:36:12.224Z,20.80
2018-05-06T19:38:17.421Z,20.70
2018-05-06T19:40:21.818Z,20.80
2018-05-06T19:42:26.063Z,20.70
2018-05-06T19:44:31.395Z,20.90
2018-05-06T19:46:35.831Z,20.80
2018-05-06T19:48:40.341Z,20.80
2018-05-06T19:50:45.728Z,20.40
2018-05-06T19:52:50.168Z,20.30
2018-05-06T19:54:54.606Z,20.50
2018-05-06T19:56:59.042Z,20.30
2018-05-06T19:59:03.147Z,20.30
2018-05-06T20:01:08.082Z,20.30
2018-05-06T20:03:12.767Z,20.20
2018-05-06T20:05:17.936Z,20.30
2018-05-06T20:07:22.743Z,20.30
2018-05-06T20:09:27.351Z,20.20
2018-05-06T20:11:31.783Z,20.10
2018-05-06T20:13:35.974Z,20.10
2018-05-06T20:15:40.422Z,20.10
2018-05-06T20:17:44.911Z,19.90
2018-05-06T20:19:49.327Z,19.90
2018-05-06T20:21:54.116Z,19.90
2018-05-06T20:23:58.447Z,19.90
2018-05-06T20:26:02.679Z,19.70
2018-05-06T20:28:06.821Z,19.80
2018-05-06T20:30:11.245Z,19.90
2018-05-06T20:32:15.667Z,19.80
2018-05-06T20:34:19.834Z,19.70
2018-05-06T20:36:24.251Z,19.70
2018-05-06T20:38:28.454Z,19.60
2018-05-06T20:40:32.793Z,19.60
2018-05-06T20:42:37.723Z,19.50
2018-05-06T20:44:42.674Z,19.50
2018-05-06T20:46:47.294Z,19.40
2018-05-06T20:48:51.486Z,19.40
2018-05-06T20:50:56.452Z,19.20
2018-05-06T20:53:01.632Z,19.10
2018-05-06T20:55:05.802Z,19.10
2018-05-06T20:57:09.962Z,19.00
2018-05-06T20:59:14.871Z,19.00
2018-05-06T21:01:19.027Z,19.00
2018-05-06T21:03:23.181Z,19.10
2018-05-06T21:05:27.338Z,19.10
2018-05-06T21:07:32.277Z,19.00
2018-05-06T21:09:36.702Z,18.90
2018-05-06T21:11:41.894Z,18.90
2018-05-06T21:13:46.323Z,18.90
2018-05-06T21:15:51.265Z,18.90
2018-05-06T21:17:55.687Z,18.80
2018-05-06T21:20:01.749Z,18.70
2018-05-06T21:22:06.938Z,18.50
2018-05-06T21:24:11.458Z,18.40
2018-05-06T21:26:15.874Z,18.30
2018-05-06T21:28:21.295Z,18.30
2018-05-06T21:30:25.837Z,18.30
2018-05-06T21:32:30.234Z,18.30
2018-05-06T21:34:34.395Z,18.30
2018-05-06T21:36:38.838Z,18.30
2018-05-06T21:38:44.350Z,18.30
2018-05-06T21:40:49.270Z,18.30
2018-05-06T21:42:53.458Z,18.30
2018-05-06T21:44:58.037Z,18.40
2018-05-06T21:47:02.577Z,18.20
2018-05-06T21:49:07.031Z,18.30
2018-05-06T21:51:11.127Z,18.10
2018-05-06T21:53:15.340Z,18.00
2018-05-06T21:55:19.856Z,17.90
2018-05-06T21:57:24.290Z,17.70
2018-05-06T21:59:28.710Z,17.80
2018-05-06T22:01:33.009Z,17.60
2018-05-06T22:03:37.930Z,17.40
2018-05-06T22:05:42.090Z,17.40
2018-05-06T22:07:46.266Z,17.30
2018-05-06T22:09:50.703Z,17.20
2018-05-06T22:11:55.612Z,17.50
2018-05-06T22:14:00.058Z,17.40
2018-05-06T22:16:03.871Z,17.30
2018-05-06T22:18:08.020Z,17.30
2018-05-06T22:20:12.393Z,17.20
2018-05-06T22:22:16.534Z,17.10
2018-05-06T22:24:21.067Z,17.10
2018-05-06T22:26:25.263Z,17.00
2018-05-06T22:28:29.491Z,17.00
2018-05-06T22:30:33.602Z,16.80
2018-05-06T22:32:38.059Z,16.70
2018-05-06T22:34:42.016Z,16.60
2018-05-06T22:36:46.438Z,16.50
2018-05-06T22:38:50.878Z,16.80
2018-05-06T22:40:55.783Z,16.80
2018-05-06T22:42:59.593Z,16.80
2018-05-06T22:45:04.245Z,16.90
2018-05-06T22:47:09.146Z,16.40
2018-05-06T22:49:13.570Z,16.40
2018-05-06T22:51:18.495Z,16.30
2018-05-06T22:53:22.690Z,16.30
2018-05-06T22:55:26.904Z,16.10
2018-05-06T22:57:31.066Z,16.20
2018-05-06T22:59:35.331Z,16.30
2018-05-06T23:01:39.254Z,16.30
2018-05-06T23:03:44.454Z,16.40
2018-05-06T23:05:48.923Z,16.40
2018-05-06T23:07:53.360Z,16.30
2018-05-06T23:09:58.741Z,16.30
2018-05-06T23:12:03.258Z,16.40
2018-05-06T23:14:07.369Z,16.50
2018-05-06T23:16:11.859Z,16.50
2018-05-06T23:18:16.445Z,16.50
2018-05-06T23:20:20.935Z,16.40
2018-05-06T23:22:25.354Z,16.40
2018-05-06T23:24:29.515Z,16.40
2018-05-06T23:26:35.248Z,16.10
2018-05-06T23:28:39.854Z,16.10
2018-05-06T23:30:44.484Z,16.20
2018-05-06T23:32:49.911Z,16.20
2018-05-06T23:34:54.350Z,16.10
2018-05-06T23:36:59.546Z,16.20
2018-05-06T23:39:03.098Z,16.10
2018-05-06T23:41:07.244Z,16.20
2018-05-06T23:43:11.666Z,16.20
2018-05-06T23:45:16.118Z,16.10
2018-05-06T23:47:21.078Z,15.90
2018-05-06T23:49:25.578Z,15.90
2018-05-06T23:51:30.798Z,15.90
2018-05-06T23:53:35.422Z,15.90
2018-05-06T23:55:40.047Z,15.90
2018-05-06T23:57:45.250Z,15.70
2018-05-06T23:59:49.673Z,15.60
